sensor_id;sensor_type;location;lat;lon;timestamp;temperature;humidity
14277;DHT22;7222;57.346;12.150;2023-01-28T00:02:22;2.60;99.90
14277;DHT22;7222;57.346;12.150;2023-01-28T00:04:49;2.60;99.90
14277;DHT22;7222;57.346;12.150;2023-01-28T00:07:17;2.60;99.90
14277;DHT22;7222;57.346;12.150;2023-01-28T00:09:46;2.60;99.90
14277;DHT22;7222;57.346;12.150;2023-01-28T00:12:13;2.60;99.90
14277;DHT22;7222;57.346;12.150;2023-01-28T00:14:40;2.70;99.90
14277;DHT22;7222;57.346;12.150;2023-01-28T00:17:07;2.70;99.90
14277;DHT22;7222;57.346;12.150;2023-01-28T00:19:33;2.70;99.90
14277;DHT22;7222;57.346;12.150;2023-01-28T00:22:00;2.80;99.90
14277;DHT22;7222;57.346;12.150;2023-01-28T00:24:29;2.80;99.90
14277;DHT22;7222;57.346;12.150;2023-01-28T00:26:57;2.80;99.90
14277;DHT22;7222;57.346;12.150;2023-01-28T00:29:24;2.80;99.90
14277;DHT22;7222;57.346;12.150;2023-01-28T00:31:51;2.70;99.90
14277;DHT22;7222;57.346;12.150;2023-01-28T00:34:19;2.80;99.90
14277;DHT22;7222;57.346;12.150;2023-01-28T00:36:47;2.80;99.90
14277;DHT22;7222;57.346;12.150;2023-01-28T00:39:22;2.80;99.90
14277;DHT22;7222;57.346;12.150;2023-01-28T00:41:50;2.90;99.90
14277;DHT22;7222;57.346;12.150;2023-01-28T00:44:19;2.90;99.90
14277;DHT22;7222;57.346;12.150;2023-01-28T00:46:46;2.80;99.90
14277;DHT22;7222;57.346;12.150;2023-01-28T00:49:13;2.90;99.90
14277;DHT22;7222;57.346;12.150;2023-01-28T00:51:40;2.90;99.90
14277;DHT22;7222;57.346;12.150;2023-01-28T00:54:07;2.90;99.90
14277;DHT22;7222;57.346;12.150;2023-01-28T00:56:34;2.90;99.90
14277;DHT22;7222;57.346;12.150;2023-01-28T00:59:02;2.90;99.90
14277;DHT22;7222;57.346;12.150;2023-01-28T01:01:30;3.00;99.90
14277;DHT22;7222;57.346;12.150;2023-01-28T01:03:57;3.00;99.90
14277;DHT22;7222;57.346;12.150;2023-01-28T01:06:29;3.00;99.90
14277;DHT22;7222;57.346;12.150;2023-01-28T01:08:56;3.00;99.90
14277;DHT22;7222;57.346;12.150;2023-01-28T01:11:23;3.00;99.90
14277;DHT22;7222;57.346;12.150;2023-01-28T01:13:52;3.10;99.90
14277;DHT22;7222;57.346;12.150;2023-01-28T01:16:20;3.00;99.90
14277;DHT22;7222;57.346;12.150;2023-01-28T01:18:50;3.00;99.90
14277;DHT22;7222;57.346;12.150;2023-01-28T01:21:19;3.00;99.90
14277;DHT22;7222;57.346;12.150;2023-01-28T01:23:46;3.10;99.90
14277;DHT22;7222;57.346;12.150;2023-01-28T01:26:14;3.10;99.90
14277;DHT22;7222;57.346;12.150;2023-01-28T01:28:41;3.10;99.90
14277;DHT22;7222;57.346;12.150;2023-01-28T01:31:11;3.10;99.90
14277;DHT22;7222;57.346;12.150;2023-01-28T01:33:39;3.10;99.90
14277;DHT22;7222;57.346;12.150;2023-01-28T01:36:10;3.10;99.90
14277;DHT22;7222;57.346;12.150;2023-01-28T01:38:37;3.10;99.90
14277;DHT22;7222;57.346;12.150;2023-01-28T01:41:05;3.20;99.90
14277;DHT22;7222;57.346;12.150;2023-01-28T01:43:47;3.20;99.90
14277;DHT22;7222;57.346;12.150;2023-01-28T01:46:16;3.20;99.90
14277;DHT22;7222;57.346;12.150;2023-01-28T01:48:44;3.20;99.90
14277;DHT22;7222;57.346;12.150;2023-01-28T01:51:16;3.20;99.90
14277;DHT22;7222;57.346;12.150;2023-01-28T01:53:48;3.20;99.90
14277;DHT22;7222;57.346;12.150;2023-01-28T01:56:19;3.10;99.90
14277;DHT22;7222;57.346;12.150;2023-01-28T01:58:49;3.20;99.90
14277;DHT22;7222;57.346;12.150;2023-01-28T02:01:19;3.20;99.90
14277;DHT22;7222;57.346;12.150;2023-01-28T02:03:52;3.20;99.90
14277;DHT22;7222;57.346;12.150;2023-01-28T02:06:22;3.20;99.90
14277;DHT22;7222;57.346;12.150;2023-01-28T02:08:52;3.20;99.90
14277;DHT22;7222;57.346;12.150;2023-01-28T02:11:20;3.20;99.90
14277;DHT22;7222;57.346;12.150;2023-01-28T02:13:52;3.30;99.90
14277;DHT22;7222;57.346;12.150;2023-01-28T02:16:20;3.30;99.90
14277;DHT22;7222;57.346;12.150;2023-01-28T02:18:48;3.20;99.90
14277;DHT22;7222;57.346;12.150;2023-01-28T02:21:55;3.30;99.90
14277;DHT22;7222;57.346;12.150;2023-01-28T02:27:33;3.30;99.90
14277;DHT22;7222;57.346;12.150;2023-01-28T02:30:07;3.30;99.90
14277;DHT22;7222;57.346;12.150;2023-01-28T02:32:41;3.30;99.90
14277;DHT22;7222;57.346;12.150;2023-01-28T02:35:12;3.30;99.90
14277;DHT22;7222;57.346;12.150;2023-01-28T02:37:46;3.30;99.90
14277;DHT22;7222;57.346;12.150;2023-01-28T02:40:21;3.30;99.90
14277;DHT22;7222;57.346;12.150;2023-01-28T02:42:48;3.30;99.90
14277;DHT22;7222;57.346;12.150;2023-01-28T02:45:20;3.40;99.90
14277;DHT22;7222;57.346;12.150;2023-01-28T02:47:48;3.30;99.90
14277;DHT22;7222;57.346;12.150;2023-01-28T02:50:25;3.30;99.90
14277;DHT22;7222;57.346;12.150;2023-01-28T02:53:04;3.30;99.90
14277;DHT22;7222;57.346;12.150;2023-01-28T02:55:55;3.40;99.90
14277;DHT22;7222;57.346;12.150;2023-01-28T02:58:32;3.30;99.90
14277;DHT22;7222;57.346;12.150;2023-01-28T03:01:07;3.40;99.90
14277;DHT22;7222;57.346;12.150;2023-01-28T03:03:45;3.30;99.90
14277;DHT22;7222;57.346;12.150;2023-01-28T03:06:19;3.40;99.90
14277;DHT22;7222;57.346;12.150;2023-01-28T03:08:51;3.40;99.90
14277;DHT22;7222;57.346;12.150;2023-01-28T03:11:43;3.40;99.90
14277;DHT22;7222;57.346;12.150;2023-01-28T03:14:31;3.40;99.90
14277;DHT22;7222;57.346;12.150;2023-01-28T03:17:20;3.40;99.90
14277;DHT22;7222;57.346;12.150;2023-01-28T03:20:07;3.40;99.90
14277;DHT22;7222;57.346;12.150;2023-01-28T03:22:54;3.40;99.90
14277;DHT22;7222;57.346;12.150;2023-01-28T03:25:42;3.30;99.90
14277;DHT22;7222;57.346;12.150;2023-01-28T03:28:28;3.30;99.90
14277;DHT22;7222;57.346;12.150;2023-01-28T03:31:16;3.30;99.90
14277;DHT22;7222;57.346;12.150;2023-01-28T03:34:04;3.20;99.90
14277;DHT22;7222;57.346;12.150;2023-01-28T03:36:49;3.10;99.90
14277;DHT22;7222;57.346;12.150;2023-01-28T03:39:19;3.20;99.90
14277;DHT22;7222;57.346;12.150;2023-01-28T03:41:58;3.20;99.90
14277;DHT22;7222;57.346;12.150;2023-01-28T03:44:26;3.20;99.90
14277;DHT22;7222;57.346;12.150;2023-01-28T03:47:11;3.30;99.90
14277;DHT22;7222;57.346;12.150;2023-01-28T03:49:40;3.20;99.90
14277;DHT22;7222;57.346;12.150;2023-01-28T03:52:10;3.30;99.90
14277;DHT22;7222;57.346;12.150;2023-01-28T03:54:37;3.30;99.90
14277;DHT22;7222;57.346;12.150;2023-01-28T03:57:04;3.30;99.90
14277;DHT22;7222;57.346;12.150;2023-01-28T03:59:31;3.30;99.90
14277;DHT22;7222;57.346;12.150;2023-01-28T04:01:59;3.30;99.90
14277;DHT22;7222;57.346;12.150;2023-01-28T04:04:28;3.40;99.90
14277;DHT22;7222;57.346;12.150;2023-01-28T04:06:58;3.40;99.90
14277;DHT22;7222;57.346;12.150;2023-01-28T04:09:26;3.40;99.90
14277;DHT22;7222;57.346;12.150;2023-01-28T04:11:52;3.40;99.90
14277;DHT22;7222;57.346;12.150;2023-01-28T04:14:19;3.40;99.90
14277;DHT22;7222;57.346;12.150;2023-01-28T04:16:46;3.40;99.90
14277;DHT22;7222;57.346;12.150;2023-01-28T04:19:13;3.40;99.90
14277;DHT22;7222;57.346;12.150;2023-01-28T04:21:40;3.40;99.90
14277;DHT22;7222;57.346;12.150;2023-01-28T04:24:09;3.40;99.90
14277;DHT22;7222;57.346;12.150;2023-01-28T04:26:36;3.40;99.90
14277;DHT22;7222;57.346;12.150;2023-01-28T04:29:03;3.50;99.90
14277;DHT22;7222;57.346;12.150;2023-01-28T04:31:30;3.40;99.90
14277;DHT22;7222;57.346;12.150;2023-01-28T04:33:57;3.50;99.90
14277;DHT22;7222;57.346;12.150;2023-01-28T04:36:25;3.40;99.90
14277;DHT22;7222;57.346;12.150;2023-01-28T04:38:52;3.40;99.90
14277;DHT22;7222;57.346;12.150;2023-01-28T04:41:20;3.40;99.90
14277;DHT22;7222;57.346;12.150;2023-01-28T04:43:47;3.50;99.90
14277;DHT22;7222;57.346;12.150;2023-01-28T04:46:15;3.50;99.90
14277;DHT22;7222;57.346;12.150;2023-01-28T04:48:42;3.50;99.90
14277;DHT22;7222;57.346;12.150;2023-01-28T04:51:09;3.50;99.90
14277;DHT22;7222;57.346;12.150;2023-01-28T04:53:36;3.50;99.90
14277;DHT22;7222;57.346;12.150;2023-01-28T04:56:03;3.50;99.90
14277;DHT22;7222;57.346;12.150;2023-01-28T04:58:31;3.40;99.90
14277;DHT22;7222;57.346;12.150;2023-01-28T05:00:59;3.50;99.90
14277;DHT22;7222;57.346;12.150;2023-01-28T05:03:26;3.60;99.90
14277;DHT22;7222;57.346;12.150;2023-01-28T05:05:53;3.60;99.90
14277;DHT22;7222;57.346;12.150;2023-01-28T05:08:20;3.60;99.90
14277;DHT22;7222;57.346;12.150;2023-01-28T05:10:47;3.60;99.90
14277;DHT22;7222;57.346;12.150;2023-01-28T05:13:13;3.50;99.90
14277;DHT22;7222;57.346;12.150;2023-01-28T05:15:42;3.50;99.90
14277;DHT22;7222;57.346;12.150;2023-01-28T05:18:09;3.50;99.90
14277;DHT22;7222;57.346;12.150;2023-01-28T05:20:36;3.50;99.90
14277;DHT22;7222;57.346;12.150;2023-01-28T05:23:03;3.50;99.90
14277;DHT22;7222;57.346;12.150;2023-01-28T05:25:29;3.60;99.90
14277;DHT22;7222;57.346;12.150;2023-01-28T05:27:56;3.50;99.90
14277;DHT22;7222;57.346;12.150;2023-01-28T05:30:23;3.60;99.90
14277;DHT22;7222;57.346;12.150;2023-01-28T05:32:55;3.50;99.90
14277;DHT22;7222;57.346;12.150;2023-01-28T05:35:22;3.60;99.90
14277;DHT22;7222;57.346;12.150;2023-01-28T05:37:50;3.60;99.90
14277;DHT22;7222;57.346;12.150;2023-01-28T05:40:17;3.60;99.90
14277;DHT22;7222;57.346;12.150;2023-01-28T05:42:44;3.60;99.90
14277;DHT22;7222;57.346;12.150;2023-01-28T05:45:11;3.60;99.90
14277;DHT22;7222;57.346;12.150;2023-01-28T05:47:38;3.60;99.90
14277;DHT22;7222;57.346;12.150;2023-01-28T05:50:08;3.60;99.90
14277;DHT22;7222;57.346;12.150;2023-01-28T05:52:35;3.60;99.90
14277;DHT22;7222;57.346;12.150;2023-01-28T05:55:02;3.50;99.90
14277;DHT22;7222;57.346;12.150;2023-01-28T05:57:29;3.60;99.90
14277;DHT22;7222;57.346;12.150;2023-01-28T05:59:56;3.50;99.90
14277;DHT22;7222;57.346;12.150;2023-01-28T06:02:23;3.60;99.90
14277;DHT22;7222;57.346;12.150;2023-01-28T06:04:50;3.60;99.90
14277;DHT22;7222;57.346;12.150;2023-01-28T06:07:18;3.60;99.90
14277;DHT22;7222;57.346;12.150;2023-01-28T06:09:45;3.60;99.90
14277;DHT22;7222;57.346;12.150;2023-01-28T06:12:13;3.60;99.90
14277;DHT22;7222;57.346;12.150;2023-01-28T06:14:40;3.60;99.90
14277;DHT22;7222;57.346;12.150;2023-01-28T06:17:07;3.60;99.90
14277;DHT22;7222;57.346;12.150;2023-01-28T06:19:34;3.60;99.90
14277;DHT22;7222;57.346;12.150;2023-01-28T06:22:01;3.60;99.90
14277;DHT22;7222;57.346;12.150;2023-01-28T06:24:30;3.60;99.90
14277;DHT22;7222;57.346;12.150;2023-01-28T06:26:57;3.60;99.90
14277;DHT22;7222;57.346;12.150;2023-01-28T06:29:24;3.70;99.90
14277;DHT22;7222;57.346;12.150;2023-01-28T06:31:51;3.70;99.90
14277;DHT22;7222;57.346;12.150;2023-01-28T06:34:18;3.70;99.90
14277;DHT22;7222;57.346;12.150;2023-01-28T06:36:45;3.70;99.90
14277;DHT22;7222;57.346;12.150;2023-01-28T06:39:12;3.70;99.90
14277;DHT22;7222;57.346;12.150;2023-01-28T06:41:40;3.60;99.90
14277;DHT22;7222;57.346;12.150;2023-01-28T06:44:07;3.70;99.90
14277;DHT22;7222;57.346;12.150;2023-01-28T06:46:34;3.80;99.90
14277;DHT22;7222;57.346;12.150;2023-01-28T06:49:02;3.70;99.90
14277;DHT22;7222;57.346;12.150;2023-01-28T06:51:29;3.70;99.90
14277;DHT22;7222;57.346;12.150;2023-01-28T06:53:56;3.70;99.90
14277;DHT22;7222;57.346;12.150;2023-01-28T06:56:23;3.80;99.90
14277;DHT22;7222;57.346;12.150;2023-01-28T06:58:52;3.70;99.90
14277;DHT22;7222;57.346;12.150;2023-01-28T07:01:19;3.80;99.90
14277;DHT22;7222;57.346;12.150;2023-01-28T07:03:46;3.80;99.90
14277;DHT22;7222;57.346;12.150;2023-01-28T07:06:12;3.80;99.90
14277;DHT22;7222;57.346;12.150;2023-01-28T07:08:39;3.70;99.90
14277;DHT22;7222;57.346;12.150;2023-01-28T07:11:07;3.70;99.90
14277;DHT22;7222;57.346;12.150;2023-01-28T07:13:34;3.70;99.90
14277;DHT22;7222;57.346;12.150;2023-01-28T07:16:02;3.70;99.90
14277;DHT22;7222;57.346;12.150;2023-01-28T07:18:29;3.70;99.90
14277;DHT22;7222;57.346;12.150;2023-01-28T07:20:56;3.70;99.90
14277;DHT22;7222;57.346;12.150;2023-01-28T07:23:23;3.70;99.90
14277;DHT22;7222;57.346;12.150;2023-01-28T07:25:50;3.70;99.90
14277;DHT22;7222;57.346;12.150;2023-01-28T07:28:17;3.70;99.90
14277;DHT22;7222;57.346;12.150;2023-01-28T07:30:47;3.70;99.90
14277;DHT22;7222;57.346;12.150;2023-01-28T07:33:16;3.60;99.90
14277;DHT22;7222;57.346;12.150;2023-01-28T07:35:43;3.70;99.90
14277;DHT22;7222;57.346;12.150;2023-01-28T07:38:11;3.70;99.90
14277;DHT22;7222;57.346;12.150;2023-01-28T07:40:38;3.70;99.90
14277;DHT22;7222;57.346;12.150;2023-01-28T07:43:07;3.60;99.90
14277;DHT22;7222;57.346;12.150;2023-01-28T07:45:34;3.70;99.90
14277;DHT22;7222;57.346;12.150;2023-01-28T07:48:03;3.70;99.90
14277;DHT22;7222;57.346;12.150;2023-01-28T07:50:33;3.70;99.90
14277;DHT22;7222;57.346;12.150;2023-01-28T07:53:02;3.70;99.90
14277;DHT22;7222;57.346;12.150;2023-01-28T07:55:29;3.70;99.90
14277;DHT22;7222;57.346;12.150;2023-01-28T07:57:58;3.70;99.90
14277;DHT22;7222;57.346;12.150;2023-01-28T08:00:26;3.80;99.90
14277;DHT22;7222;57.346;12.150;2023-01-28T08:02:56;3.80;99.90
14277;DHT22;7222;57.346;12.150;2023-01-28T08:05:24;3.80;99.90
14277;DHT22;7222;57.346;12.150;2023-01-28T08:07:54;3.80;99.90
14277;DHT22;7222;57.346;12.150;2023-01-28T08:10:21;3.80;99.90
14277;DHT22;7222;57.346;12.150;2023-01-28T08:12:52;3.90;99.90
14277;DHT22;7222;57.346;12.150;2023-01-28T08:15:20;3.90;99.90
14277;DHT22;7222;57.346;12.150;2023-01-28T08:17:47;3.80;99.90
14277;DHT22;7222;57.346;12.150;2023-01-28T08:20:14;3.80;99.90
14277;DHT22;7222;57.346;12.150;2023-01-28T08:22:41;3.80;99.90
14277;DHT22;7222;57.346;12.150;2023-01-28T08:25:09;3.80;99.90
14277;DHT22;7222;57.346;12.150;2023-01-28T08:27:36;3.90;99.90
14277;DHT22;7222;57.346;12.150;2023-01-28T08:30:04;3.90;99.90
14277;DHT22;7222;57.346;12.150;2023-01-28T08:32:31;3.80;99.90
14277;DHT22;7222;57.346;12.150;2023-01-28T08:34:58;3.80;99.90
14277;DHT22;7222;57.346;12.150;2023-01-28T08:37:26;3.80;99.90
14277;DHT22;7222;57.346;12.150;2023-01-28T08:39:53;3.80;99.90
14277;DHT22;7222;57.346;12.150;2023-01-28T08:42:21;3.80;99.90
14277;DHT22;7222;57.346;12.150;2023-01-28T08:44:48;3.80;99.90
14277;DHT22;7222;57.346;12.150;2023-01-28T08:47:15;3.90;99.90
14277;DHT22;7222;57.346;12.150;2023-01-28T08:49:42;3.90;99.90
14277;DHT22;7222;57.346;12.150;2023-01-28T08:52:09;3.80;99.90
14277;DHT22;7222;57.346;12.150;2023-01-28T08:54:36;3.90;99.90
14277;DHT22;7222;57.346;12.150;2023-01-28T08:57:03;3.90;99.90
14277;DHT22;7222;57.346;12.150;2023-01-28T08:59:32;3.90;99.90
14277;DHT22;7222;57.346;12.150;2023-01-28T09:01:59;3.90;99.90
14277;DHT22;7222;57.346;12.150;2023-01-28T09:04:26;4.00;99.90
14277;DHT22;7222;57.346;12.150;2023-01-28T09:06:53;4.00;99.90
14277;DHT22;7222;57.346;12.150;2023-01-28T09:09:20;4.00;99.90
14277;DHT22;7222;57.346;12.150;2023-01-28T09:11:47;4.10;99.90
14277;DHT22;7222;57.346;12.150;2023-01-28T09:14:14;4.20;99.90
14277;DHT22;7222;57.346;12.150;2023-01-28T09:16:42;4.20;99.90
14277;DHT22;7222;57.346;12.150;2023-01-28T09:19:10;4.30;99.90
14277;DHT22;7222;57.346;12.150;2023-01-28T09:21:38;4.20;99.90
14277;DHT22;7222;57.346;12.150;2023-01-28T09:24:09;4.10;99.90
14277;DHT22;7222;57.346;12.150;2023-01-28T09:26:36;4.10;99.90
14277;DHT22;7222;57.346;12.150;2023-01-28T09:29:03;4.10;99.90
14277;DHT22;7222;57.346;12.150;2023-01-28T09:31:29;4.10;99.90
14277;DHT22;7222;57.346;12.150;2023-01-28T09:33:58;4.10;99.90
14277;DHT22;7222;57.346;12.150;2023-01-28T09:36:25;4.10;99.90
14277;DHT22;7222;57.346;12.150;2023-01-28T09:38:52;4.10;99.90
14277;DHT22;7222;57.346;12.150;2023-01-28T09:41:27;4.10;99.90
14277;DHT22;7222;57.346;12.150;2023-01-28T09:44:26;4.20;99.90
14277;DHT22;7222;57.346;12.150;2023-01-28T09:47:00;4.10;99.90
14277;DHT22;7222;57.346;12.150;2023-01-28T09:49:33;4.20;99.90
14277;DHT22;7222;57.346;12.150;2023-01-28T09:52:01;4.30;99.90
14277;DHT22;7222;57.346;12.150;2023-01-28T09:54:34;4.30;99.90
14277;DHT22;7222;57.346;12.150;2023-01-28T09:57:08;4.40;99.90
14277;DHT22;7222;57.346;12.150;2023-01-28T09:59:37;4.40;99.90
14277;DHT22;7222;57.346;12.150;2023-01-28T10:02:22;4.40;99.90
14277;DHT22;7222;57.346;12.150;2023-01-28T10:04:58;4.40;99.90
14277;DHT22;7222;57.346;12.150;2023-01-28T10:07:35;4.30;99.90
14277;DHT22;7222;57.346;12.150;2023-01-28T10:10:10;4.30;99.90
14277;DHT22;7222;57.346;12.150;2023-01-28T10:12:49;4.20;99.90
14277;DHT22;7222;57.346;12.150;2023-01-28T10:18:32;4.20;99.90
14277;DHT22;7222;57.346;12.150;2023-01-28T10:21:07;4.20;99.90
14277;DHT22;7222;57.346;12.150;2023-01-28T10:23:44;4.20;99.90
14277;DHT22;7222;57.346;12.150;2023-01-28T10:26:21;4.10;99.90
14277;DHT22;7222;57.346;12.150;2023-01-28T10:28:56;4.10;99.90
14277;DHT22;7222;57.346;12.150;2023-01-28T10:31:29;4.10;99.90
14277;DHT22;7222;57.346;12.150;2023-01-28T10:33:57;4.20;99.90
14277;DHT22;7222;57.346;12.150;2023-01-28T10:36:26;4.10;99.90
14277;DHT22;7222;57.346;12.150;2023-01-28T10:38:53;4.10;99.90
14277;DHT22;7222;57.346;12.150;2023-01-28T10:41:21;4.20;99.90
14277;DHT22;7222;57.346;12.150;2023-01-28T10:43:50;4.20;99.90
14277;DHT22;7222;57.346;12.150;2023-01-28T10:46:20;4.20;99.90
14277;DHT22;7222;57.346;12.150;2023-01-28T10:48:53;4.20;99.90
14277;DHT22;7222;57.346;12.150;2023-01-28T10:51:31;4.20;99.90
14277;DHT22;7222;57.346;12.150;2023-01-28T10:53:59;4.20;99.90
14277;DHT22;7222;57.346;12.150;2023-01-28T10:56:29;4.20;99.90
14277;DHT22;7222;57.346;12.150;2023-01-28T10:58:59;4.20;99.90
14277;DHT22;7222;57.346;12.150;2023-01-28T11:01:38;4.20;99.90
14277;DHT22;7222;57.346;12.150;2023-01-28T11:04:05;4.30;99.90
14277;DHT22;7222;57.346;12.150;2023-01-28T11:06:40;4.30;99.90
14277;DHT22;7222;57.346;12.150;2023-01-28T11:09:20;4.20;99.90
14277;DHT22;7222;57.346;12.150;2023-01-28T11:11:47;4.30;99.90
14277;DHT22;7222;57.346;12.150;2023-01-28T11:14:19;4.30;99.90
14277;DHT22;7222;57.346;12.150;2023-01-28T11:16:47;4.30;99.90
14277;DHT22;7222;57.346;12.150;2023-01-28T11:19:15;4.30;99.90
14277;DHT22;7222;57.346;12.150;2023-01-28T11:21:50;4.40;99.90
14277;DHT22;7222;57.346;12.150;2023-01-28T11:24:22;4.40;99.90
14277;DHT22;7222;57.346;12.150;2023-01-28T11:26:51;4.50;99.90
14277;DHT22;7222;57.346;12.150;2023-01-28T11:29:24;4.50;99.90
14277;DHT22;7222;57.346;12.150;2023-01-28T11:31:52;4.50;99.90
14277;DHT22;7222;57.346;12.150;2023-01-28T11:34:25;4.60;99.90
14277;DHT22;7222;57.346;12.150;2023-01-28T11:37:00;4.70;99.90
14277;DHT22;7222;57.346;12.150;2023-01-28T11:39:28;4.70;99.90
14277;DHT22;7222;57.346;12.150;2023-01-28T11:42:09;4.60;99.90
14277;DHT22;7222;57.346;12.150;2023-01-28T11:44:37;4.70;99.90
14277;DHT22;7222;57.346;12.150;2023-01-28T11:47:17;4.70;99.90
14277;DHT22;7222;57.346;12.150;2023-01-28T11:50:00;4.70;99.90
14277;DHT22;7222;57.346;12.150;2023-01-28T11:52:42;4.60;99.90
14277;DHT22;7222;57.346;12.150;2023-01-28T11:55:34;4.70;99.90
14277;DHT22;7222;57.346;12.150;2023-01-28T11:58:13;4.70;99.90
14277;DHT22;7222;57.346;12.150;2023-01-28T12:00:46;4.80;99.90
14277;DHT22;7222;57.346;12.150;2023-01-28T12:03:40;4.70;99.90
14277;DHT22;7222;57.346;12.150;2023-01-28T12:06:31;4.80;99.90
14277;DHT22;7222;57.346;12.150;2023-01-28T12:09:12;4.80;99.90
14277;DHT22;7222;57.346;12.150;2023-01-28T12:11:52;4.80;99.90
14277;DHT22;7222;57.346;12.150;2023-01-28T12:15:00;4.90;99.90
14277;DHT22;7222;57.346;12.150;2023-01-28T12:17:36;5.00;99.90
14277;DHT22;7222;57.346;12.150;2023-01-28T12:20:14;5.00;99.90
14277;DHT22;7222;57.346;12.150;2023-01-28T12:23:09;4.90;99.90
14277;DHT22;7222;57.346;12.150;2023-01-28T12:25:49;5.00;99.90
14277;DHT22;7222;57.346;12.150;2023-01-28T12:28:28;4.90;99.90
14277;DHT22;7222;57.346;12.150;2023-01-28T12:31:09;4.90;99.90
14277;DHT22;7222;57.346;12.150;2023-01-28T12:33:48;4.90;99.90
14277;DHT22;7222;57.346;12.150;2023-01-28T12:36:31;4.90;99.90
14277;DHT22;7222;57.346;12.150;2023-01-28T12:39:09;5.00;99.90
14277;DHT22;7222;57.346;12.150;2023-01-28T12:41:44;5.00;99.90
14277;DHT22;7222;57.346;12.150;2023-01-28T12:44:19;5.00;99.90
14277;DHT22;7222;57.346;12.150;2023-01-28T12:46:50;5.00;99.90
14277;DHT22;7222;57.346;12.150;2023-01-28T12:49:23;5.00;99.90
14277;DHT22;7222;57.346;12.150;2023-01-28T12:51:58;5.10;99.90
14277;DHT22;7222;57.346;12.150;2023-01-28T12:54:32;5.10;99.90
14277;DHT22;7222;57.346;12.150;2023-01-28T12:57:03;5.10;99.90
14277;DHT22;7222;57.346;12.150;2023-01-28T12:59:36;5.20;99.90
14277;DHT22;7222;57.346;12.150;2023-01-28T13:02:16;5.20;99.90
14277;DHT22;7222;57.346;12.150;2023-01-28T13:04:49;5.30;99.90
14277;DHT22;7222;57.346;12.150;2023-01-28T13:07:21;5.30;99.90
14277;DHT22;7222;57.346;12.150;2023-01-28T13:09:52;5.20;99.90
14277;DHT22;7222;57.346;12.150;2023-01-28T13:12:22;5.20;99.90
14277;DHT22;7222;57.346;12.150;2023-01-28T13:14:49;5.40;99.90
14277;DHT22;7222;57.346;12.150;2023-01-28T13:17:28;5.40;99.90
14277;DHT22;7222;57.346;12.150;2023-01-28T13:19:56;5.30;99.90
14277;DHT22;7222;57.346;12.150;2023-01-28T13:22:31;5.30;99.90
14277;DHT22;7222;57.346;12.150;2023-01-28T13:25:21;5.30;99.90
14277;DHT22;7222;57.346;12.150;2023-01-28T13:28:01;5.20;99.90
14277;DHT22;7222;57.346;12.150;2023-01-28T13:30:30;5.30;99.90
14277;DHT22;7222;57.346;12.150;2023-01-28T13:32:59;5.30;99.90
14277;DHT22;7222;57.346;12.150;2023-01-28T13:35:32;5.20;99.90
14277;DHT22;7222;57.346;12.150;2023-01-28T13:38:07;5.30;99.90
14277;DHT22;7222;57.346;12.150;2023-01-28T13:40:35;5.30;99.90
14277;DHT22;7222;57.346;12.150;2023-01-28T13:43:25;5.30;99.90
14277;DHT22;7222;57.346;12.150;2023-01-28T13:45:57;5.30;99.90
14277;DHT22;7222;57.346;12.150;2023-01-28T13:48:31;5.40;99.90
14277;DHT22;7222;57.346;12.150;2023-01-28T13:50:59;5.30;99.90
14277;DHT22;7222;57.346;12.150;2023-01-28T13:53:36;5.30;99.90
14277;DHT22;7222;57.346;12.150;2023-01-28T13:56:14;5.30;99.90
14277;DHT22;7222;57.346;12.150;2023-01-28T13:59:06;5.30;99.90
14277;DHT22;7222;57.346;12.150;2023-01-28T14:01:55;5.40;99.90
14277;DHT22;7222;57.346;12.150;2023-01-28T14:10:32;5.40;99.90
14277;DHT22;7222;57.346;12.150;2023-01-28T14:13:18;5.40;99.90
14277;DHT22;7222;57.346;12.150;2023-01-28T14:16:09;5.40;99.90
14277;DHT22;7222;57.346;12.150;2023-01-28T14:18:41;5.30;99.90
14277;DHT22;7222;57.346;12.150;2023-01-28T14:21:11;5.30;99.90
14277;DHT22;7222;57.346;12.150;2023-01-28T14:23:43;5.30;99.90
14277;DHT22;7222;57.346;12.150;2023-01-28T14:26:25;5.30;99.90
14277;DHT22;7222;57.346;12.150;2023-01-28T14:29:04;5.30;99.90
14277;DHT22;7222;57.346;12.150;2023-01-28T14:31:36;5.20;99.90
14277;DHT22;7222;57.346;12.150;2023-01-28T14:34:09;5.20;99.90
14277;DHT22;7222;57.346;12.150;2023-01-28T14:36:39;5.20;99.90
14277;DHT22;7222;57.346;12.150;2023-01-28T14:39:14;5.20;99.90
14277;DHT22;7222;57.346;12.150;2023-01-28T14:41:43;5.20;99.90
14277;DHT22;7222;57.346;12.150;2023-01-28T14:44:23;5.10;99.90
14277;DHT22;7222;57.346;12.150;2023-01-28T14:49:53;5.20;99.90
14277;DHT22;7222;57.346;12.150;2023-01-28T14:52:55;5.10;99.90
14277;DHT22;7222;57.346;12.150;2023-01-28T14:55:33;5.10;99.90
14277;DHT22;7222;57.346;12.150;2023-01-28T14:58:08;5.10;99.90
14277;DHT22;7222;57.346;12.150;2023-01-28T15:00:37;5.00;99.90
14277;DHT22;7222;57.346;12.150;2023-01-28T15:03:17;4.90;99.90
14277;DHT22;7222;57.346;12.150;2023-01-28T15:05:44;5.00;99.90
14277;DHT22;7222;57.346;12.150;2023-01-28T15:08:19;4.90;99.90
14277;DHT22;7222;57.346;12.150;2023-01-28T15:10:46;4.90;99.90
14277;DHT22;7222;57.346;12.150;2023-01-28T15:13:19;4.90;99.90
14277;DHT22;7222;57.346;12.150;2023-01-28T15:15:49;4.90;99.90
14277;DHT22;7222;57.346;12.150;2023-01-28T15:18:18;4.90;99.90
14277;DHT22;7222;57.346;12.150;2023-01-28T15:20:51;4.90;99.90
14277;DHT22;7222;57.346;12.150;2023-01-28T15:23:24;4.90;99.90
14277;DHT22;7222;57.346;12.150;2023-01-28T15:25:52;4.80;99.90
14277;DHT22;7222;57.346;12.150;2023-01-28T15:28:25;4.80;99.90
14277;DHT22;7222;57.346;12.150;2023-01-28T15:30:53;4.80;99.90
14277;DHT22;7222;57.346;12.150;2023-01-28T15:33:21;4.90;99.90
14277;DHT22;7222;57.346;12.150;2023-01-28T15:35:50;4.80;99.90
14277;DHT22;7222;57.346;12.150;2023-01-28T15:38:18;4.80;99.90
14277;DHT22;7222;57.346;12.150;2023-01-28T15:40:47;4.70;99.90
14277;DHT22;7222;57.346;12.150;2023-01-28T15:43:18;4.70;99.90
14277;DHT22;7222;57.346;12.150;2023-01-28T15:45:47;4.70;99.90
14277;DHT22;7222;57.346;12.150;2023-01-28T15:48:14;4.70;99.90
14277;DHT22;7222;57.346;12.150;2023-01-28T15:50:43;4.70;99.90
14277;DHT22;7222;57.346;12.150;2023-01-28T15:53:11;4.70;99.90
14277;DHT22;7222;57.346;12.150;2023-01-28T15:55:40;4.60;99.90
14277;DHT22;7222;57.346;12.150;2023-01-28T15:58:34;4.60;99.90
14277;DHT22;7222;57.346;12.150;2023-01-28T16:01:14;4.60;99.90
14277;DHT22;7222;57.346;12.150;2023-01-28T16:03:43;4.70;99.90
14277;DHT22;7222;57.346;12.150;2023-01-28T16:06:15;4.70;99.90
14277;DHT22;7222;57.346;12.150;2023-01-28T16:08:46;4.60;99.90
14277;DHT22;7222;57.346;12.150;2023-01-28T16:11:22;4.60;99.90
14277;DHT22;7222;57.346;12.150;2023-01-28T16:13:50;4.50;99.90
14277;DHT22;7222;57.346;12.150;2023-01-28T16:16:28;4.60;99.90
14277;DHT22;7222;57.346;12.150;2023-01-28T16:18:55;4.50;99.90
14277;DHT22;7222;57.346;12.150;2023-01-28T16:21:26;4.50;99.90
14277;DHT22;7222;57.346;12.150;2023-01-28T16:24:00;4.60;99.90
14277;DHT22;7222;57.346;12.150;2023-01-28T16:26:28;4.60;99.90
14277;DHT22;7222;57.346;12.150;2023-01-28T16:28:56;4.50;99.90